createdAt,value
2018-07-03T00:01:14.867Z,57.80
2018-07-03T00:03:43.176Z,58.00
2018-07-03T00:06:11.540Z,58.20
2018-07-03T00:08:40.001Z,58.10
2018-07-03T00:11:08.397Z,58.30
2018-07-03T00:13:37.028Z,58.40
2018-07-03T00:16:05.548Z,58.50
2018-07-03T00:18:34.056Z,58.60
2018-07-03T00:21:02.580Z,58.80
2018-07-03T00:23:31.592Z,58.80
2018-07-03T00:26:00.027Z,58.90
2018-07-03T00:28:28.446Z,58.90
2018-07-03T00:30:56.925Z,59.00
2018-07-03T00:33:25.538Z,59.00
2018-07-03T00:35:54.702Z,59.00
2018-07-03T00:38:23.124Z,59.00
2018-07-03T00:40:51.556Z,59.10
2018-07-03T00:43:20.046Z,59.20
2018-07-03T00:45:48.836Z,59.30
2018-07-03T00:48:17.251Z,59.40
2018-07-03T00:50:45.760Z,59.30
2018-07-03T00:53:14.320Z,59.50
2018-07-03T00:55:42.809Z,59.70
2018-07-03T00:58:11.202Z,59.60
2018-07-03T01:00:39.749Z,59.90
2018-07-03T01:03:08.334Z,60.00
2018-07-03T01:05:36.837Z,60.00
2018-07-03T01:08:05.357Z,60.00
2018-07-03T01:10:33.828Z,59.90
2018-07-03T01:13:02.395Z,59.90
2018-07-03T01:15:30.891Z,60.00
2018-07-03T01:17:59.416Z,60.00
2018-07-03T01:20:27.797Z,59.90
2018-07-03T01:22:56.344Z,59.80
2018-07-03T01:25:24.779Z,60.00
2018-07-03T01:27:53.280Z,60.10
2018-07-03T01:30:21.705Z,60.30
2018-07-03T01:32:50.160Z,60.30
2018-07-03T01:35:18.588Z,60.10
2018-07-03T01:37:46.986Z,60.30
2018-07-03T01:40:15.289Z,60.10
2018-07-03T01:42:43.704Z,60.40
2018-07-03T01:45:12.192Z,60.50
2018-07-03T01:47:40.613Z,60.60
2018-07-03T01:50:09.072Z,60.60
2018-07-03T01:52:37.505Z,60.60
2018-07-03T01:55:06.992Z,60.50
2018-07-03T01:57:35.501Z,60.60
2018-07-03T02:00:05.032Z,60.90
2018-07-03T02:02:33.437Z,61.00
2018-07-03T02:05:02.390Z,61.10
2018-07-03T02:07:30.776Z,61.00
2018-07-03T02:09:59.352Z,61.00
2018-07-03T02:12:27.765Z,61.00
2018-07-03T02:14:56.300Z,61.00
2018-07-03T02:17:24.741Z,61.20
2018-07-03T02:19:53.329Z,61.30
2018-07-03T02:22:21.744Z,61.50
2018-07-03T02:24:50.187Z,61.50
2018-07-03T02:27:18.708Z,61.60
2018-07-03T02:29:47.168Z,61.70
2018-07-03T02:32:15.748Z,61.80
2018-07-03T02:34:44.181Z,61.80
2018-07-03T02:37:12.639Z,61.90
2018-07-03T02:39:41.020Z,62.00
2018-07-03T02:42:09.477Z,62.10
2018-07-03T02:44:37.897Z,61.80
2018-07-03T02:47:06.484Z,61.80
2018-07-03T02:49:34.936Z,61.90
2018-07-03T02:52:03.415Z,62.00
2018-07-03T02:54:31.877Z,62.00
2018-07-03T02:57:00.322Z,62.20
2018-07-03T02:59:28.757Z,62.20
2018-07-03T03:01:57.372Z,62.20
2018-07-03T03:04:25.817Z,62.30
2018-07-03T03:06:54.281Z,62.30
2018-07-03T03:09:24.857Z,62.30
2018-07-03T03:11:53.408Z,62.30
2018-07-03T03:14:22.288Z,62.40
2018-07-03T03:16:50.685Z,62.50
2018-07-03T03:19:19.169Z,62.50
2018-07-03T03:21:47.877Z,62.30
2018-07-03T03:24:16.482Z,62.60
2018-07-03T03:26:45.105Z,62.70
2018-07-03T03:29:13.736Z,62.90
2018-07-03T03:31:42.253Z,62.60
2018-07-03T03:39:07.272Z,62.70
2018-07-03T03:41:35.676Z,62.80
2018-07-03T03:46:32.056Z,62.70
2018-07-03T03:49:00.508Z,62.50
2018-07-03T03:51:29.000Z,62.70
2018-07-03T03:53:57.897Z,62.40
2018-07-03T03:56:26.460Z,62.30
2018-07-03T03:58:54.920Z,62.70
2018-07-03T04:01:23.376Z,62.30
2018-07-03T04:03:51.885Z,62.50
2018-07-03T04:06:20.285Z,62.40
2018-07-03T04:08:48.744Z,62.30
2018-07-03T04:11:17.245Z,62.30
2018-07-03T04:13:45.845Z,62.40
2018-07-03T04:16:14.369Z,62.30
2018-07-03T04:18:42.808Z,62.30
2018-07-03T04:21:11.314Z,62.20
2018-07-03T04:23:39.792Z,62.40
2018-07-03T04:26:08.472Z,62.40
2018-07-03T04:28:36.941Z,62.30
2018-07-03T04:31:05.355Z,62.00
2018-07-03T04:33:36.012Z,62.00
2018-07-03T04:36:04.568Z,62.10
2018-07-03T04:38:33.055Z,62.10
2018-07-03T04:41:01.489Z,62.40
2018-07-03T04:43:29.945Z,62.50
2018-07-03T04:45:58.456Z,62.40
2018-07-03T04:48:26.904Z,63.00
2018-07-03T04:50:55.380Z,62.80
2018-07-03T04:53:23.920Z,62.70
2018-07-03T04:55:52.297Z,62.50
2018-07-03T04:58:20.816Z,62.10
2018-07-03T05:00:49.345Z,65.10
2018-07-03T05:03:17.853Z,63.40
2018-07-03T05:05:46.393Z,66.20
2018-07-03T05:08:14.872Z,64.60
2018-07-03T05:10:43.280Z,64.50
2018-07-03T05:13:11.736Z,65.10
2018-07-03T05:15:40.141Z,65.40
2018-07-03T05:18:08.670Z,64.70
2018-07-03T05:20:37.256Z,66.00
2018-07-03T05:23:06.769Z,65.00
2018-07-03T05:25:35.404Z,66.10
2018-07-03T05:28:03.850Z,66.60
2018-07-03T05:30:33.976Z,66.10
2018-07-03T05:33:04.438Z,64.50
2018-07-03T05:35:33.128Z,64.60
2018-07-03T05:38:01.620Z,65.10
2018-07-03T05:40:30.069Z,63.90
2018-07-03T05:42:58.692Z,65.50
2018-07-03T05:45:27.170Z,63.70
2018-07-03T05:47:55.704Z,62.30
2018-07-03T05:50:24.199Z,66.00
2018-07-03T05:52:52.621Z,68.10
2018-07-03T05:55:21.081Z,64.00
2018-07-03T05:57:49.525Z,60.30
2018-07-03T06:00:18.377Z,59.30
2018-07-03T06:02:46.909Z,60.50
2018-07-03T06:05:15.518Z,62.70
2018-07-03T06:07:43.916Z,58.80
2018-07-03T06:10:12.496Z,58.40
2018-07-03T06:12:41.017Z,58.00
2018-07-03T06:15:09.485Z,63.00
2018-07-03T06:17:38.055Z,60.70
2018-07-03T06:20:07.986Z,55.80
2018-07-03T06:22:36.485Z,57.70
2018-07-03T06:25:05.615Z,54.90
2018-07-03T06:27:34.024Z,56.50
2018-07-03T06:30:02.415Z,57.20
2018-07-03T06:32:30.945Z,57.40
2018-07-03T06:34:59.589Z,55.50
2018-07-03T06:37:28.364Z,53.70
2018-07-03T06:39:56.472Z,51.40
2018-07-03T06:42:24.857Z,53.00
2018-07-03T06:44:53.452Z,51.00
2018-07-03T06:47:21.894Z,49.50
2018-07-03T06:49:50.318Z,52.30
2018-07-03T06:52:18.777Z,51.90
2018-07-03T06:54:47.184Z,49.00
2018-07-03T06:57:15.703Z,49.60
2018-07-03T06:59:44.129Z,50.40
2018-07-03T07:02:12.531Z,50.20
2018-07-03T07:04:41.252Z,51.60
2018-07-03T07:07:09.796Z,51.40
2018-07-03T07:09:38.198Z,51.40
2018-07-03T07:12:06.681Z,50.90
2018-07-03T07:14:35.040Z,51.50
2018-07-03T07:17:03.501Z,50.90
2018-07-03T07:19:32.111Z,52.10
2018-07-03T07:22:00.684Z,51.40
2018-07-03T07:24:29.138Z,50.40
2018-07-03T07:26:57.560Z,50.80
2018-07-03T07:29:25.951Z,51.20
2018-07-03T07:31:54.413Z,51.40
2018-07-03T07:34:22.988Z,51.20
2018-07-03T07:36:51.603Z,51.40
2018-07-03T07:39:20.231Z,52.00
2018-07-03T07:41:48.650Z,52.50
2018-07-03T07:44:17.151Z,51.60
2018-07-03T07:46:45.720Z,52.10
2018-07-03T07:49:14.349Z,51.70
2018-07-03T07:51:42.820Z,51.60
2018-07-03T07:54:11.342Z,51.90
2018-07-03T07:56:39.813Z,52.30
2018-07-03T07:59:08.276Z,53.60
2018-07-03T08:01:36.950Z,51.80
2018-07-03T08:04:05.370Z,52.00
2018-07-03T08:06:33.912Z,52.00
2018-07-03T08:09:02.776Z,52.60
2018-07-03T08:11:31.394Z,50.60
2018-07-03T08:13:59.918Z,49.80
2018-07-03T08:16:28.368Z,49.80
2018-07-03T08:18:56.984Z,49.90
2018-07-03T08:21:25.536Z,49.40
2018-07-03T08:23:54.040Z,48.40
2018-07-03T08:26:22.551Z,48.80
2018-07-03T08:28:51.489Z,47.60
2018-07-03T08:31:20.076Z,47.70
2018-07-03T08:33:48.669Z,46.90
2018-07-03T08:36:17.280Z,45.90
2018-07-03T08:38:45.902Z,44.40
2018-07-03T08:41:14.624Z,44.40
2018-07-03T08:43:43.196Z,44.60
2018-07-03T08:46:11.876Z,44.40
2018-07-03T08:48:40.604Z,44.30
2018-07-03T08:51:09.254Z,44.80
2018-07-03T08:53:38.029Z,44.50
2018-07-03T08:56:06.696Z,43.90
2018-07-03T08:58:35.305Z,41.10
2018-07-03T09:01:03.921Z,42.90
2018-07-03T09:03:32.696Z,43.80
2018-07-03T09:06:01.476Z,43.70
2018-07-03T09:08:30.070Z,43.20
2018-07-03T09:10:58.934Z,43.30
2018-07-03T09:13:27.713Z,44.00
2018-07-03T09:15:56.377Z,42.40
2018-07-03T09:18:25.121Z,41.50
2018-07-03T09:20:53.758Z,39.30
2018-07-03T09:23:22.513Z,39.30
2018-07-03T09:25:51.270Z,39.50
2018-07-03T09:28:19.925Z,42.00
2018-07-03T09:30:48.649Z,41.40
2018-07-03T09:33:17.351Z,40.40
2018-07-03T09:35:46.101Z,39.50
2018-07-03T09:38:14.724Z,40.50
2018-07-03T09:40:43.121Z,39.70
2018-07-03T09:43:11.760Z,38.90
2018-07-03T09:45:40.193Z,36.30
2018-07-03T09:48:08.576Z,36.80
2018-07-03T09:50:36.953Z,39.30
2018-07-03T09:53:05.596Z,39.30
2018-07-03T09:55:34.098Z,38.50
2018-07-03T09:58:02.602Z,37.60
2018-07-03T10:00:36.392Z,38.30
2018-07-03T10:03:04.999Z,39.50
2018-07-03T10:05:37.468Z,40.80
2018-07-03T10:08:05.844Z,39.50
2018-07-03T10:10:34.281Z,38.40
2018-07-03T10:13:02.745Z,38.40
2018-07-03T10:15:31.400Z,38.70
2018-07-03T10:18:00.416Z,38.70
2018-07-03T10:20:29.386Z,39.30
2018-07-03T10:22:57.880Z,39.60
2018-07-03T10:25:26.442Z,38.90
2018-07-03T10:27:54.869Z,38.30
2018-07-03T10:30:23.380Z,38.10
2018-07-03T10:32:51.779Z,36.50
2018-07-03T10:35:20.333Z,34.70
2018-07-03T10:37:49.842Z,35.00
2018-07-03T10:40:18.344Z,37.30
2018-07-03T10:42:46.993Z,38.50
2018-07-03T10:47:43.420Z,37.20
2018-07-03T10:50:12.044Z,37.70
2018-07-03T10:52:40.441Z,38.70
2018-07-03T10:55:08.865Z,38.60
2018-07-03T10:57:37.469Z,38.10
2018-07-03T11:00:06.681Z,37.70
2018-07-03T11:02:35.284Z,37.50
2018-07-03T11:05:03.846Z,38.50
2018-07-03T11:07:32.352Z,38.10
2018-07-03T11:10:01.060Z,36.60
2018-07-03T11:12:29.504Z,36.30
2018-07-03T11:14:57.984Z,34.80
2018-07-03T11:17:26.488Z,34.60
2018-07-03T11:19:54.960Z,34.30
2018-07-03T11:22:23.316Z,34.70
2018-07-03T11:24:51.788Z,36.30
2018-07-03T11:27:20.224Z,36.70
2018-07-03T11:29:48.617Z,36.70
2018-07-03T11:32:17.020Z,36.80
2018-07-03T11:34:45.553Z,37.20
2018-07-03T11:37:14.029Z,37.30
2018-07-03T11:39:42.282Z,35.50
2018-07-03T11:42:10.596Z,34.80
2018-07-03T11:44:38.892Z,34.60
2018-07-03T11:47:07.460Z,35.30
2018-07-03T11:49:35.869Z,35.20
2018-07-03T11:52:04.857Z,34.80
2018-07-03T11:54:33.285Z,36.10
2018-07-03T11:57:01.868Z,37.00
2018-07-03T11:59:30.380Z,37.30
2018-07-03T12:01:58.928Z,36.80
2018-07-03T12:04:27.439Z,36.60
2018-07-03T12:06:56.672Z,36.40
2018-07-03T12:09:25.138Z,36.60
2018-07-03T12:11:53.617Z,35.60
2018-07-03T12:16:50.173Z,37.40
2018-07-03T12:21:46.520Z,35.50
2018-07-03T12:24:14.964Z,36.40
2018-07-03T12:26:43.518Z,36.10
2018-07-03T12:29:12.042Z,36.80
2018-07-03T12:31:40.498Z,36.70
2018-07-03T12:34:08.897Z,37.20
2018-07-03T12:36:37.272Z,36.40
2018-07-03T12:39:08.417Z,36.40
2018-07-03T12:41:36.856Z,36.90
2018-07-03T12:44:05.669Z,37.90
2018-07-03T12:46:34.075Z,37.30
2018-07-03T12:49:02.592Z,37.60
2018-07-03T12:51:31.389Z,38.20
2018-07-03T12:53:59.793Z,36.90
2018-07-03T12:56:28.312Z,37.70
2018-07-03T12:58:57.250Z,37.70
2018-07-03T13:01:25.858Z,38.40
2018-07-03T13:03:54.528Z,38.10
2018-07-03T13:06:23.016Z,37.80
2018-07-03T13:08:51.490Z,38.70
2018-07-03T13:11:19.874Z,38.60
2018-07-03T13:13:48.247Z,38.80
2018-07-03T13:18:44.853Z,38.70
2018-07-03T13:21:13.283Z,38.30
2018-07-03T13:23:41.786Z,38.60
2018-07-03T13:26:10.260Z,37.90
2018-07-03T13:28:38.891Z,38.30
2018-07-03T13:31:07.436Z,39.60
2018-07-03T13:33:35.840Z,39.20
2018-07-03T13:36:04.340Z,39.00
2018-07-03T13:38:32.764Z,37.80
2018-07-03T13:41:01.331Z,37.60
2018-07-03T13:43:29.740Z,38.50
2018-07-03T13:45:58.208Z,39.60
2018-07-03T13:48:26.714Z,39.70
2018-07-03T13:50:55.336Z,39.20
2018-07-03T13:53:23.969Z,39.30
2018-07-03T13:55:52.473Z,38.10
2018-07-03T13:58:21.469Z,38.40
2018-07-03T14:00:49.977Z,38.70
2018-07-03T14:03:18.420Z,38.00
2018-07-03T14:05:46.815Z,37.80
2018-07-03T14:08:15.084Z,38.20
2018-07-03T14:10:43.569Z,37.70
2018-07-03T14:13:11.923Z,37.50
2018-07-03T14:15:40.351Z,37.00
2018-07-03T14:18:09.628Z,36.90
2018-07-03T14:20:38.075Z,38.00
2018-07-03T14:23:08.033Z,38.80
2018-07-03T14:25:36.544Z,38.60
2018-07-03T14:28:04.993Z,38.20
2018-07-03T14:30:33.516Z,38.60
2018-07-03T14:33:01.886Z,38.80
2018-07-03T14:35:30.319Z,38.10
2018-07-03T14:37:59.636Z,40.50
2018-07-03T14:40:28.048Z,38.90
2018-07-03T14:42:56.508Z,39.00
2018-07-03T14:45:24.882Z,39.60
2018-07-03T14:47:53.329Z,38.90
2018-07-03T14:50:21.764Z,39.00
2018-07-03T14:52:50.600Z,38.60
2018-07-03T14:55:19.020Z,38.10
2018-07-03T14:57:47.396Z,38.50
2018-07-03T15:00:15.724Z,38.40
2018-07-03T15:02:44.020Z,39.50
2018-07-03T15:05:12.321Z,39.40
2018-07-03T15:07:40.723Z,38.90
2018-07-03T15:10:09.240Z,40.20
2018-07-03T15:12:37.620Z,40.20
2018-07-03T15:15:06.154Z,40.10
2018-07-03T15:17:34.654Z,39.00
2018-07-03T15:20:03.789Z,38.90
2018-07-03T15:22:32.180Z,38.60
2018-07-03T15:25:00.996Z,38.70
2018-07-03T15:27:29.492Z,37.90
2018-07-03T15:30:00.376Z,38.30
2018-07-03T15:32:28.922Z,38.60
2018-07-03T15:34:57.785Z,38.80
2018-07-03T15:37:26.464Z,39.10
2018-07-03T15:39:56.236Z,39.00
2018-07-03T15:42:25.075Z,38.60
2018-07-03T15:45:02.793Z,39.10
2018-07-03T15:47:31.495Z,39.60
2018-07-03T15:49:59.986Z,39.60
2018-07-03T15:52:28.568Z,38.80
2018-07-03T15:54:57.052Z,38.80
2018-07-03T15:57:25.563Z,39.30
2018-07-03T15:59:54.107Z,39.30
2018-07-03T16:02:22.591Z,39.50
2018-07-03T16:07:13.868Z,38.90
2018-07-03T16:12:10.314Z,39.40
2018-07-03T16:14:38.956Z,38.90
2018-07-03T16:17:07.609Z,39.30
2018-07-03T16:19:41.608Z,39.60
2018-07-03T16:22:10.115Z,39.30
2018-07-03T16:24:38.564Z,40.10
2018-07-03T16:27:07.185Z,40.00
2018-07-03T16:29:35.689Z,39.90
2018-07-03T16:32:04.704Z,39.70
2018-07-03T16:34:33.124Z,39.20
2018-07-03T16:37:02.815Z,39.10
2018-07-03T16:39:31.313Z,39.50
2018-07-03T16:41:59.988Z,39.70
2018-07-03T16:44:28.548Z,40.10
2018-07-03T16:46:57.120Z,40.40
2018-07-03T16:49:25.470Z,40.00
2018-07-03T16:51:54.005Z,40.10
2018-07-03T16:54:22.492Z,40.20
2018-07-03T16:56:51.067Z,41.30
2018-07-03T16:59:19.949Z,40.30
2018-07-03T17:01:48.584Z,40.60
2018-07-03T17:04:17.016Z,40.70
2018-07-03T17:06:45.946Z,40.20
2018-07-03T17:09:14.521Z,40.20
2018-07-03T17:11:43.008Z,40.30
2018-07-03T17:14:11.629Z,41.10
2018-07-03T17:16:41.413Z,41.20
2018-07-03T17:19:15.272Z,41.00
2018-07-03T17:21:43.756Z,40.30
2018-07-03T17:24:16.224Z,40.70
2018-07-03T17:26:44.636Z,40.40
2018-07-03T17:29:13.152Z,40.80
2018-07-03T17:31:41.558Z,41.00
2018-07-03T17:34:10.185Z,41.00
2018-07-03T17:36:38.778Z,41.90
2018-07-03T17:39:15.500Z,41.80
2018-07-03T17:41:55.500Z,41.60
2018-07-03T17:44:32.295Z,41.40
2018-07-03T17:47:01.044Z,41.80
2018-07-03T17:49:29.508Z,42.00
2018-07-03T17:51:57.964Z,42.40
2018-07-03T17:54:26.664Z,42.30
2018-07-03T17:56:55.310Z,42.50
2018-07-03T17:59:23.751Z,42.70
2018-07-03T18:01:52.640Z,42.90
2018-07-03T18:04:21.156Z,42.50
2018-07-03T18:06:49.597Z,42.10
2018-07-03T18:09:18.062Z,41.90
2018-07-03T18:11:46.592Z,42.10
2018-07-03T18:14:15.116Z,42.50
2018-07-03T18:16:43.550Z,42.90
2018-07-03T18:19:17.636Z,42.70
2018-07-03T18:21:46.274Z,43.60
2018-07-03T18:24:14.773Z,43.20
2018-07-03T18:26:43.213Z,44.00
2018-07-03T18:29:11.777Z,43.60
2018-07-03T18:31:40.217Z,44.50
2018-07-03T18:34:08.780Z,44.00
2018-07-03T18:36:37.267Z,45.10
2018-07-03T18:39:08.412Z,45.60
2018-07-03T18:41:36.844Z,45.40
2018-07-03T18:44:06.394Z,45.20
2018-07-03T18:46:34.761Z,45.20
2018-07-03T18:49:23.661Z,45.40
2018-07-03T18:51:52.108Z,46.20
2018-07-03T18:54:20.539Z,46.40
2018-07-03T18:56:48.878Z,46.10
2018-07-03T18:59:17.284Z,46.30
2018-07-03T19:01:45.800Z,46.30
2018-07-03T19:04:14.212Z,46.20
2018-07-03T19:06:42.621Z,46.50
2018-07-03T19:09:11.306Z,46.40
2018-07-03T19:11:39.917Z,47.30
2018-07-03T19:14:08.320Z,48.30
2018-07-03T19:16:38.972Z,47.80
2018-07-03T19:19:07.357Z,47.90
2018-07-03T19:21:35.932Z,47.80
2018-07-03T19:26:32.563Z,49.10
2018-07-03T19:29:01.116Z,49.10
2018-07-03T19:31:29.572Z,49.00
2018-07-03T19:33:58.077Z,49.40
2018-07-03T19:36:26.719Z,49.00
2018-07-03T19:38:55.201Z,49.60
2018-07-03T19:41:23.636Z,49.60
2018-07-03T19:44:04.620Z,49.90
2018-07-03T19:46:33.244Z,49.70
2018-07-03T19:49:01.676Z,50.50
2018-07-03T19:51:30.150Z,50.50
2018-07-03T19:53:58.704Z,50.20
2018-07-03T19:56:29.476Z,51.10
2018-07-03T19:58:57.852Z,51.40
2018-07-03T20:01:26.400Z,51.70
2018-07-03T20:03:54.910Z,51.40
2018-07-03T20:06:23.407Z,51.60
2018-07-03T20:08:52.026Z,51.50
2018-07-03T20:11:20.433Z,51.60
2018-07-03T20:13:48.998Z,51.90
2018-07-03T20:16:17.390Z,52.20
2018-07-03T20:18:45.809Z,52.50
2018-07-03T20:21:14.257Z,53.10
2018-07-03T20:23:42.660Z,53.00
2018-07-03T20:26:11.318Z,53.00
2018-07-03T20:28:39.813Z,53.20
2018-07-03T20:31:08.652Z,53.70
2018-07-03T20:33:37.141Z,53.50
2018-07-03T20:36:05.556Z,53.90
2018-07-03T20:38:34.032Z,54.40
2018-07-03T20:41:09.539Z,54.30
2018-07-03T20:43:40.224Z,54.20
2018-07-03T20:46:09.653Z,54.50
2018-07-03T20:48:38.145Z,54.80
2018-07-03T20:51:06.772Z,55.00
2018-07-03T20:53:35.144Z,55.40
2018-07-03T20:56:03.748Z,55.70
2018-07-03T20:58:32.187Z,55.50
2018-07-03T21:01:00.665Z,55.50
2018-07-03T21:03:29.336Z,56.00
2018-07-03T21:05:57.807Z,55.90
2018-07-03T21:08:26.384Z,56.00
2018-07-03T21:10:54.884Z,56.10
2018-07-03T21:13:23.419Z,56.10
2018-07-03T21:15:51.849Z,56.00
2018-07-03T21:18:20.325Z,56.40
2018-07-03T21:20:48.727Z,56.40
2018-07-03T21:23:17.100Z,56.40
2018-07-03T21:25:45.616Z,56.60
2018-07-03T21:28:14.267Z,57.00
2018-07-03T21:30:42.640Z,57.10
2018-07-03T21:33:11.046Z,57.00
2018-07-03T21:35:39.567Z,57.10
2018-07-03T21:38:08.003Z,57.30
2018-07-03T21:40:36.368Z,57.40
2018-07-03T21:43:04.728Z,57.20
2018-07-03T21:45:33.228Z,57.30
2018-07-03T21:48:01.694Z,57.50
2018-07-03T21:50:30.232Z,57.80
2018-07-03T21:52:58.665Z,58.00
2018-07-03T21:55:27.162Z,58.00
2018-07-03T21:57:55.564Z,58.30
2018-07-03T22:00:35.893Z,58.00
2018-07-03T22:03:05.737Z,58.30
2018-07-03T22:05:34.164Z,58.30
2018-07-03T22:08:02.589Z,58.80
2018-07-03T22:10:31.045Z,58.90
2018-07-03T22:12:59.658Z,59.00
2018-07-03T22:15:28.093Z,58.70
2018-07-03T22:17:56.764Z,58.90
2018-07-03T22:20:25.152Z,59.10
2018-07-03T22:22:53.533Z,59.10
2018-07-03T22:25:21.986Z,59.30
2018-07-03T22:27:50.541Z,59.50
2018-07-03T22:30:18.964Z,59.40
2018-07-03T22:32:47.535Z,59.60
2018-07-03T22:35:16.352Z,59.50
2018-07-03T22:37:44.896Z,59.80
2018-07-03T22:40:13.357Z,59.70
2018-07-03T22:42:41.856Z,59.80
2018-07-03T22:45:10.332Z,60.00
2018-07-03T22:47:38.752Z,60.10
2018-07-03T22:50:07.216Z,60.10
2018-07-03T22:52:35.610Z,60.20
2018-07-03T22:55:04.184Z,60.10
2018-07-03T22:57:32.598Z,60.50
2018-07-03T23:00:01.033Z,60.60
2018-07-03T23:02:29.545Z,60.50
2018-07-03T23:04:58.068Z,60.80
2018-07-03T23:07:26.596Z,60.80
2018-07-03T23:09:55.083Z,60.90
2018-07-03T23:12:23.740Z,60.90
2018-07-03T23:14:55.458Z,61.00
2018-07-03T23:17:23.889Z,61.00
2018-07-03T23:19:52.504Z,61.10
2018-07-03T23:22:21.056Z,61.20
2018-07-03T23:24:49.508Z,61.20
2018-07-03T23:27:18.104Z,61.20
2018-07-03T23:29:46.580Z,61.30
2018-07-03T23:32:15.097Z,61.40
2018-07-03T23:34:43.524Z,61.60
2018-07-03T23:37:11.933Z,61.60
2018-07-03T23:39:40.451Z,61.70
2018-07-03T23:42:08.857Z,61.60
2018-07-03T23:44:37.342Z,61.60
2018-07-03T23:47:16.933Z,61.70
2018-07-03T23:49:56.457Z,61.70
2018-07-03T23:52:35.976Z,61.70
2018-07-03T23:55:19.296Z,61.80
2018-07-03T23:57:58.756Z,61.80
